Weather

Other Local Aerodome WX Info

Adelaide

TAF YPAD 041639Z 0418/0600 06006KT 9999 MIFG NSC FM042300 01005KT CAVOK FM050200 33005KT CAVOK FM050600 22006KT CAVOK FM051500 06005KT 9999 SCT040 FM051900 06005KT 9999 -SHRA SCT025 BKN050 RMK T 05 07 11 14 Q 1029 1030 1031 1029

Parafield

TAF AMD YPPF 041859Z 0419/0512 02006KT 9999 MIFG NSC FM042300 01006KT CAVOK FM050500 23005KT CAVOK PROB30 0419/0423 0500 FG RMK T 02 05 11 14 Q 1029 1029 1030 1029

Murray Bridge

TAF YMBD 041841Z 0420/0508 01005KT CAVOK FM050300 17007KT CAVOK PROB30 0420/0500 0500 FG RMK T 01 05 13 15 Q 1030 1031 1030 1028

Kingscote

TAF YKSC 041706Z 0418/0506 VRB03KT CAVOK FM050000 08005KT 9999 SCT030 PROB30 0418/0500 0500 FG RMK T 03 05 10 14 Q 1029 1030 1030 1029